Seymour, Wisconsin
Current Conditions -  °F | °C
As of 8:53 AM on Thursday 30 Oct 2014 (Local Time) from KGRB Reporting Station
Overcast Overcast  
Wind Chill: 39°   Ceiling: 10000
Heat Index: 39°   Visibility: 10mi
Dew Point: 36°   Wind: 3mph
Humidity: 89%   Direction: 240°WSW
Pressure: 30.08"   Gusts: NA
Location:  44.51°N, 88.33°W
Report Text: KGRB 301353Z 24003KT 10SM OVC100 04/02 A3008 RMK AO2 SLP193 T00390022
Loading
Personal Weather Stations






























Interactive Weather Map
Tropical Storm Tracking
New forecast layout! Learn more

10-Day Weather Forecast

Advertisements
Track Severe Weather on mobile